Time;durP1;ratioP1;P1;durP2;ratioP2;P2;SDS_P1;SDS_P2;PMS_P1;PMS_P2;Temp;Humidity;BMP_temperature;BMP_pressure;BME280_temperature;BME280_humidity;BME280_pressure;Samples;Min_cycle;Max_cycle;Signal;HPM_P1;HPM_P2
2023/07/02 00:01:45;;;;;;;1.58;1.33;;;13.90;99.90;;;;;;5032744;28;20225;-93
2023/07/02 00:04:19;;;;;;;1.75;1.20;;;14.00;99.90;;;;;;5037641;28;20197;-93
2023/07/02 00:06:55;;;;;;;2.13;1.42;;;14.10;99.90;;;;;;5052334;28;20225;-92
2023/07/02 00:09:27;;;;;;;2.22;1.50;;;14.20;99.90;;;;;;5052159;28;20693;-93
2023/07/02 00:12:00;;;;;;;1.83;1.00;;;14.30;99.90;;;;;;5050655;28;20220;-91
2023/07/02 00:14:33;;;;;;;2.03;1.42;;;14.30;99.90;;;;;;5033524;28;20201;-92
2023/07/02 00:17:04;;;;;;;1.17;1.08;;;14.40;99.90;;;;;;5030938;28;20446;-92
2023/07/02 00:19:35;;;;;;;0.80;0.80;;;14.60;99.90;;;;;;5019602;28;20202;-93
2023/07/02 00:22:15;;;;;;;1.20;1.10;;;14.70;99.90;;;;;;5013452;28;20361;-92
2023/07/02 00:24:47;;;;;;;3.10;1.38;;;14.80;99.90;;;;;;5013198;28;20205;-93
2023/07/02 00:27:20;;;;;;;2.45;1.60;;;14.90;99.90;;;;;;5013322;28;20202;-93
2023/07/02 00:29:51;;;;;;;1.63;0.90;;;15.00;99.90;;;;;;4996560;28;20657;-92
2023/07/02 00:32:25;;;;;;;2.08;1.17;;;15.20;99.90;;;;;;5012177;28;20711;-92
2023/07/02 00:34:58;;;;;;;1.75;1.10;;;15.30;99.90;;;;;;5023411;28;20205;-92
2023/07/02 00:37:34;;;;;;;2.38;1.10;;;15.40;99.90;;;;;;5013390;28;20225;-92
2023/07/02 00:40:05;;;;;;;1.20;1.08;;;15.50;99.90;;;;;;5022487;28;20251;-92
2023/07/02 00:42:39;;;;;;;2.45;1.10;;;15.60;99.90;;;;;;5011687;28;20204;-91
2023/07/02 00:45:11;;;;;;;2.00;0.90;;;15.70;99.90;;;;;;5047232;28;20276;-91
2023/07/02 00:47:44;;;;;;;4.03;1.40;;;15.70;99.90;;;;;;5036347;28;20213;-92
2023/07/02 00:50:17;;;;;;;4.22;1.10;;;15.80;99.90;;;;;;5014994;28;20201;-92
2023/07/02 00:52:53;;;;;;;1.60;1.10;;;15.80;99.90;;;;;;5032240;28;20192;-91
2023/07/02 00:55:25;;;;;;;2.20;1.10;;;16.00;99.90;;;;;;5015455;28;20256;-91
2023/07/02 00:57:58;;;;;;;2.78;0.93;;;16.10;99.90;;;;;;5013066;28;20202;-92
2023/07/02 01:00:32;;;;;;;1.33;0.90;;;16.20;99.90;;;;;;5014009;28;20202;-92
2023/07/02 01:03:05;;;;;;;1.08;0.77;;;16.20;99.90;;;;;;5037573;28;20642;-92
2023/07/02 01:05:41;;;;;;;2.85;1.30;;;16.40;99.90;;;;;;5019086;28;20198;-92
2023/07/02 01:08:15;;;;;;;2.28;1.25;;;16.40;99.90;;;;;;5036625;28;20220;-93
2023/07/02 01:10:47;;;;;;;1.75;1.00;;;16.50;99.90;;;;;;5034614;28;20193;-92
2023/07/02 01:13:25;;;;;;;2.08;1.10;;;16.60;99.90;;;;;;5036897;28;20199;-93
2023/07/02 01:15:58;;;;;;;1.60;1.10;;;16.70;99.90;;;;;;5036542;28;20201;-92
2023/07/02 01:18:31;;;;;;;1.48;0.88;;;16.80;99.90;;;;;;5036166;28;20231;-91
2023/07/02 01:21:07;;;;;;;2.35;1.08;;;16.90;99.90;;;;;;5036167;28;20197;-92
2023/07/02 01:23:40;;;;;;;2.78;0.93;;;17.10;99.90;;;;;;5019417;28;20201;-91
2023/07/02 01:26:13;;;;;;;3.00;1.15;;;17.20;99.90;;;;;;5019416;28;20210;-91
2023/07/02 01:28:45;;;;;;;2.40;0.75;;;17.20;99.90;;;;;;5034749;28;20237;-91
2023/07/02 01:31:17;;;;;;;1.73;0.93;;;17.20;99.90;;;;;;5035612;28;20247;-92
2023/07/02 01:33:50;;;;;;;1.80;1.00;;;17.30;99.90;;;;;;5020454;28;20194;-93
2023/07/02 01:36:26;;;;;;;2.80;0.90;;;17.30;99.90;;;;;;5026798;28;20237;-87
2023/07/02 01:38:58;;;;;;;4.88;0.85;;;17.40;99.90;;;;;;5022956;28;20277;-92
2023/07/02 01:41:30;;;;;;;2.65;1.10;;;17.50;99.90;;;;;;5036726;28;20206;-92
2023/07/02 01:44:04;;;;;;;1.98;0.95;;;17.60;99.90;;;;;;5033328;28;20274;-92
2023/07/02 01:46:36;;;;;;;3.55;1.30;;;17.60;99.90;;;;;;5049186;28;20292;-90
2023/07/02 01:49:08;;;;;;;2.05;0.95;;;17.60;99.90;;;;;;5036579;28;20228;-92
2023/07/02 01:51:42;;;;;;;2.20;0.75;;;17.80;99.90;;;;;;5037531;28;20207;-92
2023/07/02 01:54:14;;;;;;;2.25;0.98;;;17.80;99.90;;;;;;5048405;28;20197;-92
2023/07/02 01:56:48;;;;;;;4.97;1.10;;;17.90;99.90;;;;;;5022474;28;20208;-92
2023/07/02 01:59:19;;;;;;;2.95;0.98;;;17.90;99.90;;;;;;5017607;28;20239;-92
2023/07/02 02:01:51;;;;;;;3.75;0.80;;;18.00;99.90;;;;;;5017790;28;20242;-91
2023/07/02 02:04:24;;;;;;;2.60;0.65;;;18.10;99.90;;;;;;5016940;28;20208;-92
2023/07/02 02:07:00;;;;;;;2.47;1.20;;;18.20;99.90;;;;;;5010926;28;20220;-92
2023/07/02 02:09:35;;;;;;;2.20;0.93;;;18.30;99.90;;;;;;5034247;28;20228;-92
2023/07/02 02:12:08;;;;;;;2.95;1.00;;;18.30;99.90;;;;;;5034040;28;20196;-92
2023/07/02 02:14:41;;;;;;;2.40;0.60;;;18.30;99.90;;;;;;5034274;28;20205;-92
2023/07/02 02:17:14;;;;;;;4.55;0.90;;;18.30;99.90;;;;;;5015819;28;20214;-93
2023/07/02 02:19:47;;;;;;;3.92;1.05;;;18.40;99.90;;;;;;5015533;28;20205;-92
2023/07/02 02:22:23;;;;;;;3.72;0.90;;;18.50;99.90;;;;;;5027083;28;20211;-91
2023/07/02 02:24:54;;;;;;;1.65;0.90;;;18.60;99.90;;;;;;5034665;28;20203;-92
2023/07/02 02:27:27;;;;;;;1.77;0.95;;;18.60;99.90;;;;;;5034769;28;20216;-93
2023/07/02 02:29:59;;;;;;;1.50;0.75;;;18.60;99.90;;;;;;5017161;28;20225;-91
2023/07/02 02:32:30;;;;;;;2.30;0.80;;;18.70;99.90;;;;;;5034440;28;20283;-90
2023/07/02 02:35:02;;;;;;;2.97;0.77;;;18.80;99.90;;;;;;5027687;28;20206;-91
2023/07/02 02:37:39;;;;;;;2.63;0.70;;;18.90;99.90;;;;;;5007295;28;20256;-91
2023/07/02 02:40:12;;;;;;;1.95;0.90;;;18.90;99.90;;;;;;5021144;28;20334;-91
2023/07/02 02:42:44;;;;;;;2.15;0.98;;;18.90;99.90;;;;;;5015857;28;20210;-92
2023/07/02 02:45:16;;;;;;;4.00;0.93;;;18.90;99.90;;;;;;5015116;28;20220;-91
2023/07/02 02:47:48;;;;;;;5.13;1.33;;;18.90;99.90;;;;;;5015315;28;20209;-91
2023/07/02 02:50:20;;;;;;;5.05;1.20;;;18.90;99.90;;;;;;5030562;28;20216;-91
2023/07/02 02:52:54;;;;;;;3.45;1.33;;;18.90;99.90;;;;;;5033233;28;20649;-91
2023/07/02 02:55:26;;;;;;;6.15;1.42;;;18.90;99.90;;;;;;5034332;28;20205;-92
2023/07/02 02:58:00;;;;;;;3.30;1.25;;;18.90;99.90;;;;;;5034313;28;20205;-92
2023/07/02 03:00:32;;;;;;;4.32;1.05;;;18.80;99.90;;;;;;5038073;28;20224;-92
2023/07/02 03:03:05;;;;;;;5.53;1.50;;;18.90;99.90;;;;;;5045758;28;20236;-92
2023/07/02 03:05:37;;;;;;;4.47;1.00;;;18.90;99.90;;;;;;5055305;28;20205;-93
2023/07/02 03:08:11;;;;;;;3.72;1.55;;;18.90;99.90;;;;;;5036297;28;20205;-92
2023/07/02 03:10:42;;;;;;;4.10;1.35;;;18.90;99.90;;;;;;5032393;28;20188;-92
2023/07/02 03:13:17;;;;;;;4.85;1.40;;;18.90;99.90;;;;;;5019359;28;20202;-92
2023/07/02 03:15:49;;;;;;;2.92;1.33;;;19.00;99.90;;;;;;5014777;28;20209;-92
2023/07/02 03:18:21;;;;;;;2.78;1.20;;;19.00;99.90;;;;;;5014321;28;20208;-91
2023/07/02 03:20:54;;;;;;;3.15;1.00;;;19.00;99.90;;;;;;5028066;28;20200;-91
2023/07/02 03:23:28;;;;;;;3.92;0.80;;;18.90;99.90;;;;;;5033184;28;20201;-90
2023/07/02 03:26:00;;;;;;;5.47;0.95;;;19.00;99.90;;;;;;5024069;28;20201;-91
2023/07/02 03:28:34;;;;;;;4.35;1.05;;;18.90;99.90;;;;;;5013761;28;20226;-90
2023/07/02 03:31:07;;;;;;;4.57;0.85;;;18.90;99.90;;;;;;5013708;28;20204;-91
2023/07/02 03:33:38;;;;;;;2.90;1.00;;;18.90;99.90;;;;;;5032684;28;20205;-92
2023/07/02 03:36:10;;;;;;;6.85;1.10;;;18.90;99.90;;;;;;5031825;28;20197;-93
2023/07/02 03:38:44;;;;;;;4.15;1.20;;;18.80;99.90;;;;;;5015733;28;20205;-90
2023/07/02 03:41:17;;;;;;;2.42;0.90;;;18.70;99.90;;;;;;5020461;28;20202;-93
2023/07/02 03:43:51;;;;;;;2.65;1.23;;;18.60;99.90;;;;;;5032703;28;20197;-93
2023/07/02 03:46:23;;;;;;;3.70;1.05;;;18.60;99.90;;;;;;5024850;28;20296;-93
2023/07/02 03:48:56;;;;;;;5.47;1.00;;;18.50;99.90;;;;;;5033370;28;20699;-91
2023/07/02 03:51:27;;;;;;;4.88;1.13;;;18.50;99.90;;;;;;5032526;28;20602;-92
2023/07/02 03:54:00;;;;;;;1.83;0.70;;;18.50;99.90;;;;;;5032718;28;20204;-93
2023/07/02 03:56:32;;;;;;;3.17;1.00;;;18.50;99.90;;;;;;5033335;28;20520;-92
2023/07/02 03:59:04;;;;;;;4.35;1.00;;;18.50;99.90;;;;;;5031889;28;20665;-92
2023/07/02 04:01:37;;;;;;;3.60;1.15;;;18.50;99.90;;;;;;5020130;28;20426;-93
2023/07/02 04:04:09;;;;;;;2.33;1.00;;;18.40;99.90;;;;;;5031410;28;20205;-93
2023/07/02 04:06:42;;;;;;;2.17;1.00;;;18.50;99.90;;;;;;5006975;28;20203;-92
2023/07/02 04:09:18;;;;;;;3.05;0.90;;;18.40;99.90;;;;;;5015777;28;20240;-93
2023/07/02 04:11:51;;;;;;;2.70;1.27;;;18.40;99.90;;;;;;5035460;28;20643;-92
2023/07/02 04:14:23;;;;;;;3.28;1.10;;;18.30;99.90;;;;;;5035957;28;20205;-92
2023/07/02 04:16:55;;;;;;;3.03;1.02;;;18.30;99.90;;;;;;5025021;28;20197;-93
2023/07/02 04:19:27;;;;;;;3.00;1.00;;;18.20;99.90;;;;;;5034490;28;20268;-94
2023/07/02 04:22:00;;;;;;;4.10;1.00;;;18.20;99.90;;;;;;5034407;28;20207;-93
2023/07/02 04:24:38;;;;;;;3.72;1.30;;;18.20;99.90;;;;;;5015804;28;20211;-92
2023/07/02 04:27:13;;;;;;;4.43;1.00;;;18.10;99.90;;;;;;5006086;28;20350;-92
2023/07/02 04:29:45;;;;;;;2.88;0.95;;;18.00;99.90;;;;;;5035342;28;20221;-93
2023/07/02 04:32:16;;;;;;;3.60;1.10;;;18.00;99.90;;;;;;5034396;28;20233;-92
2023/07/02 04:34:50;;;;;;;2.80;1.10;;;18.10;99.90;;;;;;5030972;28;20225;-92
2023/07/02 04:37:23;;;;;;;3.20;1.20;;;18.00;99.90;;;;;;5029817;28;20209;-92
2023/07/02 04:39:57;;;;;;;2.92;0.95;;;18.00;99.90;;;;;;5022766;28;20204;-92
2023/07/02 04:42:28;;;;;;;7.03;1.50;;;18.00;99.90;;;;;;5017021;28;20277;-92
2023/07/02 04:45:01;;;;;;;3.47;1.00;;;17.90;99.90;;;;;;5017332;28;20205;-93
2023/07/02 04:47:34;;;;;;;1.90;0.90;;;18.00;99.90;;;;;;5017785;28;20198;-93
2023/07/02 04:50:05;;;;;;;4.07;1.17;;;17.90;99.90;;;;;;5027530;28;20217;-92
2023/07/02 04:52:37;;;;;;;4.90;1.40;;;17.90;99.90;;;;;;5031504;28;20193;-92
2023/07/02 04:55:12;;;;;;;3.13;1.20;;;17.90;99.90;;;;;;5038584;28;20204;-93
2023/07/02 04:57:51;;;;;;;4.97;2.10;;;17.90;99.90;;;;;;5058914;28;20214;-92
2023/07/02 05:00:26;;;;;;;4.28;1.70;;;17.90;99.90;;;;;;5044545;28;20645;-91
2023/07/02 05:02:57;;;;;;;3.58;1.20;;;17.80;99.90;;;;;;5057839;28;20216;-91
2023/07/02 05:05:28;;;;;;;2.97;1.17;;;17.80;99.90;;;;;;5057367;28;20200;-91
2023/07/02 05:08:01;;;;;;;3.45;1.23;;;17.70;99.90;;;;;;5039182;28;20193;-91
2023/07/02 05:10:39;;;;;;;7.15;2.03;;;17.70;99.90;;;;;;5020078;28;20655;-91
2023/07/02 05:13:11;;;;;;;4.72;1.40;;;17.70;99.90;;;;;;5002580;28;20198;-93
2023/07/02 05:15:48;;;;;;;3.47;1.23;;;17.70;99.90;;;;;;5020018;28;20209;-93
2023/07/02 05:18:22;;;;;;;3.92;1.33;;;17.60;99.90;;;;;;5021462;28;20194;-92
2023/07/02 05:20:54;;;;;;;3.58;1.20;;;17.60;99.90;;;;;;5019761;28;20212;-92
2023/07/02 05:23:26;;;;;;;4.60;1.40;;;17.60;99.90;;;;;;5002754;28;20224;-93
2023/07/02 05:26:01;;;;;;;4.47;1.20;;;17.60;99.90;;;;;;5020451;28;20209;-91
2023/07/02 05:28:32;;;;;;;5.20;1.40;;;17.60;99.90;;;;;;5056488;28;20235;-91
2023/07/02 05:31:05;;;;;;;3.60;1.27;;;17.60;99.90;;;;;;5059524;28;20261;-87
2023/07/02 05:33:36;;;;;;;2.42;1.25;;;17.50;99.90;;;;;;5059663;28;20195;-92
2023/07/02 05:36:08;;;;;;;3.53;1.40;;;17.50;99.90;;;;;;5056697;28;20205;-92
2023/07/02 05:38:41;;;;;;;5.38;1.52;;;17.60;99.90;;;;;;5055075;28;20203;-91
2023/07/02 05:41:15;;;;;;;5.85;1.40;;;17.60;99.90;;;;;;5051368;28;20202;-91
2023/07/02 05:43:48;;;;;;;3.80;1.52;;;17.60;99.90;;;;;;5037933;28;20211;-91
2023/07/02 05:46:20;;;;;;;4.22;1.35;;;17.40;99.90;;;;;;5040501;28;20205;-92
2023/07/02 05:48:55;;;;;;;2.83;1.80;;;17.40;99.90;;;;;;5040414;28;20212;-92
2023/07/02 05:51:30;;;;;;;5.07;1.45;;;17.40;99.90;;;;;;5041523;28;20207;-92
2023/07/02 05:54:02;;;;;;;5.20;1.70;;;17.40;99.90;;;;;;5036270;28;20189;-92
2023/07/02 05:56:35;;;;;;;4.10;1.33;;;17.40;99.90;;;;;;5035576;28;20205;-93
2023/07/02 05:59:07;;;;;;;3.25;1.30;;;17.40;99.90;;;;;;5017459;28;20201;-92
2023/07/02 06:01:40;;;;;;;4.88;1.55;;;17.30;99.90;;;;;;5035804;28;20237;-92
2023/07/02 06:04:13;;;;;;;2.15;1.15;;;17.40;99.90;;;;;;5035617;28;20660;-92
2023/07/02 06:06:45;;;;;;;1.65;0.98;;;17.40;99.90;;;;;;5036075;28;20216;-92
2023/07/02 06:09:17;;;;;;;3.20;1.38;;;17.30;99.90;;;;;;5048734;28;20225;-92
2023/07/02 06:11:51;;;;;;;4.82;1.60;;;17.30;99.90;;;;;;5052064;28;20205;-92
2023/07/02 06:14:25;;;;;;;5.72;1.70;;;17.20;99.90;;;;;;5040477;28;20212;-92
2023/07/02 06:16:57;;;;;;;3.65;1.40;;;17.20;99.90;;;;;;5030292;28;20282;-92
2023/07/02 06:19:32;;;;;;;2.95;1.30;;;17.20;99.90;;;;;;5020431;28;20206;-92
2023/07/02 06:22:07;;;;;;;3.25;1.42;;;17.20;99.90;;;;;;5017558;28;20216;-93
2023/07/02 06:24:42;;;;;;;3.38;1.25;;;17.20;99.90;;;;;;5018506;28;20202;-91
2023/07/02 06:27:18;;;;;;;3.67;1.25;;;17.10;99.90;;;;;;5017822;28;20216;-92
2023/07/02 06:29:54;;;;;;;5.40;1.67;;;17.10;99.90;;;;;;5027217;28;20213;-92
2023/07/02 06:32:27;;;;;;;4.28;1.50;;;17.00;99.90;;;;;;5033018;28;20679;-93
2023/07/02 06:34:59;;;;;;;3.15;1.35;;;17.00;99.90;;;;;;5034542;28;20228;-92
2023/07/02 06:37:32;;;;;;;3.85;1.60;;;17.00;99.90;;;;;;5043771;28;20257;-92
2023/07/02 06:40:06;;;;;;;3.03;1.67;;;16.90;99.90;;;;;;5036965;28;20217;-92
2023/07/02 06:42:42;;;;;;;2.97;1.40;;;16.80;99.90;;;;;;5037719;28;20900;-91
2023/07/02 06:45:18;;;;;;;3.05;1.40;;;16.80;99.90;;;;;;5019205;28;20197;-89
2023/07/02 06:47:49;;;;;;;4.45;1.25;;;16.70;99.90;;;;;;5036090;28;20201;-91
2023/07/02 06:50:23;;;;;;;2.42;1.30;;;16.70;99.90;;;;;;5007078;28;20237;-90
2023/07/02 06:52:57;;;;;;;4.50;1.63;;;16.60;99.90;;;;;;5015961;28;20213;-91
2023/07/02 06:55:29;;;;;;;3.00;1.35;;;16.60;99.90;;;;;;5015563;28;20203;-90
2023/07/02 06:58:04;;;;;;;2.70;1.70;;;16.60;99.90;;;;;;5015990;28;20576;-92
2023/07/02 07:00:37;;;;;;;3.20;1.52;;;16.50;99.90;;;;;;5049343;28;20564;-91
2023/07/02 07:03:09;;;;;;;2.90;1.52;;;16.40;99.90;;;;;;5036043;28;20225;-90
2023/07/02 07:05:50;;;;;;;3.38;1.77;;;16.40;99.90;;;;;;5035369;28;20201;-90
2023/07/02 07:08:31;;;;;;;3.50;2.15;;;16.40;99.90;;;;;;5002394;28;20202;-91
2023/07/02 07:11:05;;;;;;;4.28;2.20;;;16.40;99.90;;;;;;5015720;28;20303;-88
2023/07/02 07:13:40;;;;;;;5.38;2.45;;;16.30;99.90;;;;;;5015399;28;20611;-89
2023/07/02 07:16:14;;;;;;;6.00;2.55;;;16.30;99.90;;;;;;5015438;28;20560;-90
2023/07/02 07:18:49;;;;;;;4.85;2.70;;;16.20;99.90;;;;;;5028338;28;20209;-87
2023/07/02 07:21:21;;;;;;;5.13;2.53;;;16.20;99.90;;;;;;5035175;28;20545;-90
2023/07/02 07:23:55;;;;;;;4.53;2.63;;;16.20;99.90;;;;;;5030591;28;20193;-89
2023/07/02 07:26:29;;;;;;;4.38;2.50;;;16.20;99.90;;;;;;5035395;28;20596;-92
2023/07/02 07:29:08;;;;;;;5.88;2.60;;;16.10;99.90;;;;;;5034681;28;20309;-90
2023/07/02 07:31:44;;;;;;;4.53;2.20;;;16.10;99.90;;;;;;5035135;28;20239;-88
2023/07/02 07:34:18;;;;;;;4.30;2.30;;;16.00;99.90;;;;;;5034734;28;20197;-87
2023/07/02 07:36:50;;;;;;;7.53;2.83;;;16.00;99.90;;;;;;5034441;28;20197;-88
2023/07/02 07:39:22;;;;;;;7.60;2.85;;;15.90;99.90;;;;;;5034912;28;20216;-90
2023/07/02 07:41:53;;;;;;;4.68;2.70;;;15.90;99.90;;;;;;5033311;28;20215;-89
2023/07/02 07:47:14;;;;;;;6.13;2.42;;;15.90;99.90;;;;;;5037247;28;20207;-88
2023/07/02 07:49:49;;;;;;;5.13;2.85;;;15.90;99.90;;;;;;5034036;28;20217;-88
2023/07/02 07:52:21;;;;;;;3.95;2.70;;;15.90;99.90;;;;;;5034090;28;20660;-90
2023/07/02 07:54:53;;;;;;;3.70;2.50;;;15.90;99.90;;;;;;5018324;28;20207;-89
2023/07/02 07:57:25;;;;;;;6.10;2.90;;;15.90;99.90;;;;;;5032226;28;20209;-89
2023/07/02 08:00:00;;;;;;;4.97;3.05;;;15.90;99.90;;;;;;5036544;28;20201;-88
2023/07/02 08:02:33;;;;;;;7.28;3.28;;;15.80;99.90;;;;;;5035178;28;20240;-88
2023/07/02 08:05:06;;;;;;;6.20;3.00;;;15.80;99.90;;;;;;5035259;28;20197;-89
2023/07/02 08:07:37;;;;;;;6.53;3.15;;;15.80;99.90;;;;;;5034223;28;20276;-88
2023/07/02 08:10:09;;;;;;;6.05;3.35;;;15.80;99.90;;;;;;5030459;28;20236;-89
2023/07/02 08:12:47;;;;;;;5.75;3.63;;;15.80;99.90;;;;;;5036545;28;20200;-89
2023/07/02 08:15:21;;;;;;;5.05;3.40;;;15.80;99.90;;;;;;5023923;28;20308;-89
2023/07/02 08:17:54;;;;;;;5.53;3.35;;;15.80;99.90;;;;;;5017116;28;20212;-88
2023/07/02 08:20:28;;;;;;;5.05;3.45;;;15.80;99.90;;;;;;5015797;28;20236;-88
2023/07/02 08:23:04;;;;;;;5.85;3.85;;;15.80;99.90;;;;;;5024960;28;20193;-90
2023/07/02 08:25:35;;;;;;;6.45;3.70;;;15.80;99.90;;;;;;5034804;28;20206;-87
2023/07/02 08:28:07;;;;;;;5.55;3.50;;;15.80;99.90;;;;;;5036266;28;20199;-89
2023/07/02 08:30:42;;;;;;;6.57;3.58;;;15.70;99.90;;;;;;5018500;28;20224;-87
2023/07/02 08:33:14;;;;;;;8.85;5.05;;;15.80;99.90;;;;;;5015146;28;20201;-88
2023/07/02 08:35:47;;;;;;;6.78;4.50;;;15.70;99.90;;;;;;5033498;28;20201;-87
2023/07/02 08:38:18;;;;;;;5.60;3.75;;;15.80;99.90;;;;;;5034274;28;20247;-88
2023/07/02 08:40:51;;;;;;;9.40;4.28;;;15.70;99.90;;;;;;5035683;28;20207;-88
2023/07/02 08:43:23;;;;;;;7.93;3.90;;;15.70;99.90;;;;;;5033218;28;20212;-88
2023/07/02 08:45:58;;;;;;;6.68;3.53;;;15.70;99.90;;;;;;5034315;28;20189;-89
2023/07/02 08:48:31;;;;;;;6.05;3.78;;;15.70;99.90;;;;;;5032756;28;20196;-88
2023/07/02 08:51:02;;;;;;;7.32;4.65;;;15.70;99.90;;;;;;5032211;28;20225;-89
2023/07/02 08:53:34;;;;;;;12.07;7.50;;;15.70;99.90;;;;;;5033190;28;20316;-88
2023/07/02 08:56:06;;;;;;;7.30;4.72;;;15.70;99.90;;;;;;5033670;28;20205;-87
2023/07/02 08:58:40;;;;;;;7.55;4.38;;;15.70;99.90;;;;;;5033447;28;20197;-87
2023/07/02 09:01:15;;;;;;;7.43;3.75;;;15.70;99.90;;;;;;5034142;28;20236;-87
2023/07/02 09:03:47;;;;;;;6.55;3.30;;;15.70;99.90;;;;;;5034436;28;20565;-88
2023/07/02 09:06:21;;;;;;;5.95;3.50;;;15.60;99.90;;;;;;5023122;28;20201;-88
2023/07/02 09:08:53;;;;;;;5.47;3.15;;;15.60;99.90;;;;;;5026324;28;20293;-89
2023/07/02 09:11:24;;;;;;;4.85;3.40;;;15.60;99.90;;;;;;5033524;28;20700;-89
2023/07/02 09:14:02;;;;;;;7.15;3.70;;;15.60;99.90;;;;;;5033239;28;20205;-88
2023/07/02 09:16:41;;;;;;;6.35;3.80;;;15.60;99.90;;;;;;5033530;28;20677;-88
2023/07/02 09:19:17;;;;;;;6.20;4.00;;;15.60;99.90;;;;;;5034078;28;20649;-89
2023/07/02 09:21:50;;;;;;;5.38;3.50;;;15.60;99.90;;;;;;5025568;28;20201;-89
2023/07/02 09:24:23;;;;;;;5.20;3.10;;;15.50;99.90;;;;;;5018041;28;20261;-90
2023/07/02 09:26:56;;;;;;;5.38;3.47;;;15.60;99.90;;;;;;5031933;28;20192;-87
2023/07/02 09:29:30;;;;;;;6.60;3.33;;;15.50;99.90;;;;;;5038814;28;20205;-88
2023/07/02 09:32:07;;;;;;;7.07;4.15;;;15.50;99.90;;;;;;5037567;28;20639;-87
2023/07/02 09:34:39;;;;;;;7.75;3.85;;;15.40;99.90;;;;;;5036582;28;20265;-88
2023/07/02 09:37:10;;;;;;;7.97;4.10;;;15.40;99.90;;;;;;5035021;28;20699;-89
2023/07/02 09:39:42;;;;;;;7.10;3.55;;;15.40;99.90;;;;;;5028497;28;20216;-88
2023/07/02 09:42:14;;;;;;;8.52;3.70;;;15.40;99.90;;;;;;5014775;28;20228;-87
2023/07/02 09:44:45;;;;;;;7.32;3.50;;;15.40;99.90;;;;;;5030473;28;20213;-89
2023/07/02 09:47:23;;;;;;;4.65;2.85;;;15.40;99.90;;;;;;5035162;28;20205;-89
2023/07/02 09:49:57;;;;;;;7.47;3.10;;;15.40;99.90;;;;;;5034715;28;20205;-89
2023/07/02 09:52:29;;;;;;;8.50;3.35;;;15.40;99.90;;;;;;5034126;28;20197;-89
2023/07/02 09:55:03;;;;;;;7.60;3.60;;;15.30;99.90;;;;;;5034373;28;20197;-88
2023/07/02 09:57:35;;;;;;;6.43;3.85;;;15.30;99.90;;;;;;5028505;28;20720;-90
2023/07/02 10:00:09;;;;;;;7.75;4.25;;;15.20;99.90;;;;;;5029938;28;20209;-88
2023/07/02 10:02:43;;;;;;;6.82;4.40;;;15.20;99.90;;;;;;5015804;28;20260;-89
2023/07/02 10:05:28;;;;;;;8.40;4.53;;;15.20;99.90;;;;;;5016434;28;20205;-88
2023/07/02 10:08:03;;;;;;;6.60;3.58;;;15.20;99.90;;;;;;5015092;28;20198;-88
2023/07/02 10:10:35;;;;;;;6.50;3.47;;;15.20;99.90;;;;;;5017045;28;20225;-89
2023/07/02 10:13:06;;;;;;;7.93;3.92;;;15.10;99.90;;;;;;5011967;28;20216;-88
2023/07/02 10:15:39;;;;;;;6.68;4.50;;;15.20;99.90;;;;;;5000404;28;20198;-90
2023/07/02 10:18:14;;;;;;;8.73;4.63;;;15.10;99.90;;;;;;5001740;28;20202;-88
2023/07/02 10:20:46;;;;;;;12.77;7.20;;;15.10;99.90;;;;;;5011347;28;20340;-88
2023/07/02 10:23:17;;;;;;;17.15;7.57;;;15.00;99.90;;;;;;5014327;28;20208;-89
2023/07/02 10:25:48;;;;;;;13.02;5.55;;;15.00;99.90;;;;;;5013994;28;20206;-87
2023/07/02 10:28:24;;;;;;;9.02;5.47;;;15.00;99.90;;;;;;5014686;28;20204;-88
2023/07/02 10:30:58;;;;;;;8.20;5.00;;;14.90;99.90;;;;;;5006263;28;20661;-88
2023/07/02 10:33:35;;;;;;;7.85;4.53;;;14.90;99.90;;;;;;4994082;28;20194;-89
2023/07/02 10:36:10;;;;;;;12.40;7.20;;;14.90;99.90;;;;;;4999323;28;20672;-88
2023/07/02 10:38:42;;;;;;;14.50;6.10;;;14.80;99.90;;;;;;5014800;28;20202;-88
2023/07/02 10:41:13;;;;;;;10.10;5.30;;;14.80;99.90;;;;;;5011048;28;20202;-88
2023/07/02 10:43:45;;;;;;;10.60;5.40;;;14.70;99.90;;;;;;5019240;28;20212;-88
2023/07/02 10:46:24;;;;;;;10.85;5.43;;;14.70;99.90;;;;;;5019569;28;20206;-87
2023/07/02 10:49:00;;;;;;;10.82;5.43;;;14.60;99.90;;;;;;5014298;28;20209;-88
2023/07/02 10:51:31;;;;;;;9.27;4.88;;;14.70;99.90;;;;;;5018360;28;20261;-90
2023/07/02 10:54:04;;;;;;;10.05;4.78;;;14.70;99.90;;;;;;5020330;28;20202;-89
2023/07/02 10:56:36;;;;;;;11.00;5.32;;;14.70;99.90;;;;;;5019136;28;20289;-89
2023/07/02 10:59:09;;;;;;;7.03;4.65;;;14.70;99.90;;;;;;5021898;28;20190;-90
2023/07/02 11:01:41;;;;;;;10.45;5.28;;;14.60;99.90;;;;;;5044685;28;20248;-87
2023/07/02 11:04:35;;;;;;;10.32;5.53;;;14.60;99.90;;;;;;5064091;28;20581;-89
2023/07/02 11:07:17;;;;;;;9.05;5.30;;;14.50;99.90;;;;;;4996857;28;20227;-91
2023/07/02 11:10:13;;;;;;;6.68;5.13;;;14.50;99.90;;;;;;5053635;28;20192;-89
2023/07/02 11:13:32;;;;;;;9.20;5.50;;;14.40;99.90;;;;;;5049981;28;20237;-90
2023/07/02 11:16:32;;;;;;;9.20;5.00;;;14.40;99.90;;;;;;5017627;28;20196;-90
2023/07/02 11:22:42;;;;;;;8.82;5.40;;;14.40;99.90;;;;;;5034476;28;20256;-90
2023/07/02 11:33:44;;;;;;;9.45;5.47;;;14.40;99.90;;;;;;5055845;28;20212;-86
2023/07/02 11:39:29;;;;;;;10.30;6.05;;;14.40;99.90;;;;;;5047719;28;20193;-90
2023/07/02 11:42:00;;;;;;;10.88;5.72;;;14.40;99.90;;;;;;5057986;28;20252;-92
2023/07/02 11:44:44;;;;;;;11.23;5.65;;;14.40;99.90;;;;;;5268182;23;20690;-90
2023/07/02 11:47:27;;;;;;;9.55;5.85;;;14.40;99.90;;;;;;5043533;28;20205;-90
2023/07/02 11:50:01;;;;;;;8.10;5.22;;;14.50;99.90;;;;;;5041078;28;20220;-91
2023/07/02 11:52:39;;;;;;;10.20;5.75;;;14.50;99.90;;;;;;5187028;22;20295;-90
2023/07/02 11:55:38;;;;;;;12.98;5.47;;;14.40;99.90;;;;;;5050255;28;20292;-90
2023/07/02 11:58:38;;;;;;;11.10;5.80;;;14.40;99.90;;;;;;5030506;28;20213;-89
2023/07/02 12:01:11;;;;;;;10.57;6.07;;;14.30;99.90;;;;;;5030526;28;20251;-88
2023/07/02 12:06:44;;;;;;;10.77;6.40;;;14.30;99.90;;;;;;5049759;28;20198;-90
2023/07/02 12:09:39;;;;;;;11.30;5.72;;;14.20;99.90;;;;;;5047336;28;20683;-89
2023/07/02 12:15:16;;;;;;;9.68;5.68;;;14.20;99.90;;;;;;5024346;28;20205;-88
2023/07/02 12:17:48;;;;;;;10.20;5.75;;;14.10;99.90;;;;;;5014103;28;20629;-89
2023/07/02 12:20:23;;;;;;;9.38;5.72;;;14.20;99.90;;;;;;5024256;28;20229;-90
2023/07/02 12:22:55;;;;;;;8.18;5.65;;;14.20;99.90;;;;;;5035542;28;20283;-92
2023/07/02 12:25:26;;;;;;;12.63;6.40;;;14.20;99.90;;;;;;5035209;28;20215;-90
2023/07/02 12:28:00;;;;;;;10.80;6.50;;;14.10;99.90;;;;;;5033638;28;20204;-90
2023/07/02 12:30:34;;;;;;;8.85;5.35;;;14.20;99.90;;;;;;5033254;28;20208;-89
2023/07/02 12:33:08;;;;;;;10.65;5.90;;;14.20;99.90;;;;;;5032337;28;20233;-88
2023/07/02 12:35:40;;;;;;;8.93;6.20;;;14.30;99.90;;;;;;5033324;28;20203;-88
2023/07/02 12:38:11;;;;;;;13.15;6.70;;;14.30;99.90;;;;;;5033174;28;20227;-89
2023/07/02 12:40:43;;;;;;;11.55;6.10;;;14.30;99.90;;;;;;5033488;28;20216;-88
2023/07/02 12:43:19;;;;;;;9.98;6.90;;;14.30;99.90;;;;;;5031843;28;20672;-90
2023/07/02 12:45:50;;;;;;;10.63;6.82;;;14.40;99.90;;;;;;5017117;28;20269;-89
2023/07/02 12:48:22;;;;;;;12.93;6.50;;;14.30;99.90;;;;;;4995237;28;20577;-88
2023/07/02 12:51:01;;;;;;;12.38;6.53;;;14.30;99.90;;;;;;4995649;28;20202;-89
2023/07/02 12:53:32;;;;;;;11.85;6.15;;;14.30;99.90;;;;;;4993243;28;20256;-88
2023/07/02 12:56:04;;;;;;;12.38;5.90;;;14.30;99.90;;;;;;4993734;28;20207;-86
2023/07/02 12:58:38;;;;;;;11.27;5.93;;;14.20;99.90;;;;;;4996524;28;20210;-87
2023/07/02 13:01:13;;;;;;;8.75;5.95;;;14.30;99.90;;;;;;5007993;28;20194;-87
2023/07/02 13:03:50;;;;;;;8.60;5.63;;;14.20;99.90;;;;;;5012964;28;20195;-87
2023/07/02 13:06:21;;;;;;;10.88;5.97;;;14.20;99.90;;;;;;5013607;28;20203;-87
2023/07/02 13:08:52;;;;;;;11.32;5.95;;;14.20;99.90;;;;;;5015213;28;20196;-87
2023/07/02 13:11:23;;;;;;;9.90;5.55;;;14.10;99.90;;;;;;5015856;28;20225;-88
2023/07/02 13:13:57;;;;;;;8.10;5.57;;;14.20;99.90;;;;;;5020058;28;20202;-87
2023/07/02 13:16:28;;;;;;;9.48;5.40;;;14.20;99.90;;;;;;5003113;28;20207;-87
2023/07/02 13:19:03;;;;;;;8.75;5.45;;;14.20;99.90;;;;;;4996649;28;20577;-87
2023/07/02 13:21:34;;;;;;;8.70;5.93;;;14.30;99.90;;;;;;4996997;28;20198;-88
2023/07/02 13:24:05;;;;;;;10.65;5.60;;;14.30;99.90;;;;;;4995400;28;20211;-88
2023/07/02 13:26:36;;;;;;;8.13;5.82;;;14.30;99.90;;;;;;5005202;28;20202;-87
2023/07/02 13:29:09;;;;;;;11.35;6.40;;;14.30;99.90;;;;;;5015274;28;20202;-88
2023/07/02 13:31:41;;;;;;;9.90;5.90;;;14.40;99.90;;;;;;5014118;28;20222;-88
2023/07/02 13:34:13;;;;;;;9.18;5.90;;;14.30;99.90;;;;;;5017104;28;20202;-88
2023/07/02 13:36:45;;;;;;;16.45;6.45;;;14.30;99.90;;;;;;5030954;28;20192;-89
2023/07/02 13:39:16;;;;;;;14.23;6.18;;;14.30;99.90;;;;;;5015457;28;20221;-86
2023/07/02 13:41:50;;;;;;;12.77;5.97;;;14.20;99.90;;;;;;5016873;28;20285;-88
2023/07/02 13:44:26;;;;;;;8.88;5.75;;;14.20;99.90;;;;;;5014496;28;20221;-89